sensor_id;sensor_type;location;lat;lon;timestamp;P1;durP1;ratioP1;P2;durP2;ratioP2
3918;SDS011;1974;48.670;8.994;2023-01-01T00:01:08;3.70;;;1.70;;
3918;SDS011;1974;48.670;8.994;2023-01-01T00:03:38;5.17;;;2.20;;
3918;SDS011;1974;48.670;8.994;2023-01-01T00:06:05;4.77;;;1.73;;
3918;SDS011;1974;48.670;8.994;2023-01-01T00:08:33;4.40;;;2.03;;
3918;SDS011;1974;48.670;8.994;2023-01-01T00:11:00;2.50;;;1.67;;
3918;SDS011;1974;48.670;8.994;2023-01-01T00:13:26;2.33;;;1.23;;
3918;SDS011;1974;48.670;8.994;2023-01-01T00:15:53;2.20;;;1.50;;
3918;SDS011;1974;48.670;8.994;2023-01-01T00:18:19;4.13;;;1.20;;
3918;SDS011;1974;48.670;8.994;2023-01-01T00:20:47;4.83;;;1.40;;
3918;SDS011;1974;48.670;8.994;2023-01-01T00:23:14;2.13;;;1.20;;
3918;SDS011;1974;48.670;8.994;2023-01-01T00:25:41;3.73;;;1.43;;
3918;SDS011;1974;48.670;8.994;2023-01-01T00:28:08;3.10;;;1.87;;
3918;SDS011;1974;48.670;8.994;2023-01-01T00:30:37;6.47;;;2.00;;
3918;SDS011;1974;48.670;8.994;2023-01-01T00:33:05;1.67;;;1.20;;
3918;SDS011;1974;48.670;8.994;2023-01-01T00:35:32;2.10;;;1.30;;
3918;SDS011;1974;48.670;8.994;2023-01-01T00:38:00;3.00;;;1.33;;
3918;SDS011;1974;48.670;8.994;2023-01-01T00:40:27;1.57;;;1.10;;
3918;SDS011;1974;48.670;8.994;2023-01-01T00:42:54;3.23;;;2.03;;
3918;SDS011;1974;48.670;8.994;2023-01-01T00:45:20;3.77;;;1.70;;
3918;SDS011;1974;48.670;8.994;2023-01-01T00:47:47;1.07;;;1.07;;
3918;SDS011;1974;48.670;8.994;2023-01-01T00:50:14;4.30;;;1.17;;
3918;SDS011;1974;48.670;8.994;2023-01-01T00:52:41;2.87;;;1.87;;
3918;SDS011;1974;48.670;8.994;2023-01-01T00:55:10;8.63;;;1.90;;
3918;SDS011;1974;48.670;8.994;2023-01-01T00:57:37;1.40;;;1.07;;
3918;SDS011;1974;48.670;8.994;2023-01-01T01:00:04;1.40;;;1.20;;
3918;SDS011;1974;48.670;8.994;2023-01-01T01:02:31;1.70;;;1.33;;
3918;SDS011;1974;48.670;8.994;2023-01-01T01:04:58;5.50;;;1.83;;
3918;SDS011;1974;48.670;8.994;2023-01-01T01:07:25;3.73;;;1.97;;
3918;SDS011;1974;48.670;8.994;2023-01-01T01:09:52;3.80;;;3.50;;
3918;SDS011;1974;48.670;8.994;2023-01-01T01:12:20;6.33;;;2.20;;
3918;SDS011;1974;48.670;8.994;2023-01-01T01:14:47;11.13;;;2.80;;
3918;SDS011;1974;48.670;8.994;2023-01-01T01:17:13;4.67;;;2.80;;
3918;SDS011;1974;48.670;8.994;2023-01-01T01:19:40;10.40;;;3.20;;
3918;SDS011;1974;48.670;8.994;2023-01-01T01:22:07;10.43;;;3.40;;
3918;SDS011;1974;48.670;8.994;2023-01-01T01:24:33;17.30;;;5.50;;
3918;SDS011;1974;48.670;8.994;2023-01-01T01:27:00;4.87;;;3.17;;
3918;SDS011;1974;48.670;8.994;2023-01-01T01:29:28;11.10;;;2.97;;
3918;SDS011;1974;48.670;8.994;2023-01-01T01:31:55;4.93;;;3.10;;
3918;SDS011;1974;48.670;8.994;2023-01-01T01:34:22;4.57;;;2.50;;
3918;SDS011;1974;48.670;8.994;2023-01-01T01:36:48;3.93;;;2.17;;
3918;SDS011;1974;48.670;8.994;2023-01-01T01:39:17;6.53;;;1.33;;
3918;SDS011;1974;48.670;8.994;2023-01-01T01:41:43;3.17;;;1.57;;
3918;SDS011;1974;48.670;8.994;2023-01-01T01:47:27;2.50;;;1.63;;
3918;SDS011;1974;48.670;8.994;2023-01-01T01:49:58;2.83;;;1.10;;
3918;SDS011;1974;48.670;8.994;2023-01-01T01:52:32;1.33;;;1.20;;
3918;SDS011;1974;48.670;8.994;2023-01-01T01:55:03;1.60;;;1.03;;
3918;SDS011;1974;48.670;8.994;2023-01-01T01:57:33;1.17;;;0.80;;
3918;SDS011;1974;48.670;8.994;2023-01-01T02:00:00;1.27;;;0.83;;
3918;SDS011;1974;48.670;8.994;2023-01-01T02:02:31;2.07;;;0.97;;
3918;SDS011;1974;48.670;8.994;2023-01-01T02:05:00;1.40;;;0.90;;
3918;SDS011;1974;48.670;8.994;2023-01-01T02:07:27;1.53;;;1.00;;
3918;SDS011;1974;48.670;8.994;2023-01-01T02:09:57;1.00;;;0.90;;
3918;SDS011;1974;48.670;8.994;2023-01-01T02:12:25;1.50;;;0.87;;
3918;SDS011;1974;48.670;8.994;2023-01-01T02:14:52;2.60;;;1.07;;
3918;SDS011;1974;48.670;8.994;2023-01-01T02:17:21;0.97;;;0.70;;
3918;SDS011;1974;48.670;8.994;2023-01-01T02:19:57;6.20;;;0.90;;
3918;SDS011;1974;48.670;8.994;2023-01-01T02:22:45;0.73;;;0.70;;
3918;SDS011;1974;48.670;8.994;2023-01-01T02:25:33;1.70;;;1.13;;
3918;SDS011;1974;48.670;8.994;2023-01-01T02:28:12;1.73;;;0.77;;
3918;SDS011;1974;48.670;8.994;2023-01-01T02:30:46;0.93;;;0.70;;
3918;SDS011;1974;48.670;8.994;2023-01-01T02:33:15;1.50;;;1.13;;
3918;SDS011;1974;48.670;8.994;2023-01-01T02:35:47;0.93;;;0.70;;
3918;SDS011;1974;48.670;8.994;2023-01-01T02:38:22;8.80;;;1.40;;
3918;SDS011;1974;48.670;8.994;2023-01-01T02:40:52;1.40;;;0.90;;
3918;SDS011;1974;48.670;8.994;2023-01-01T02:43:21;0.70;;;0.57;;
3918;SDS011;1974;48.670;8.994;2023-01-01T02:45:49;1.50;;;0.70;;
3918;SDS011;1974;48.670;8.994;2023-01-01T02:48:36;0.50;;;0.50;;
3918;SDS011;1974;48.670;8.994;2023-01-01T02:51:09;3.30;;;1.03;;
3918;SDS011;1974;48.670;8.994;2023-01-01T02:53:43;2.13;;;1.50;;
3918;SDS011;1974;48.670;8.994;2023-01-01T02:56:15;1.90;;;1.80;;
3918;SDS011;1974;48.670;8.994;2023-01-01T02:58:55;2.20;;;0.93;;
3918;SDS011;1974;48.670;8.994;2023-01-01T03:01:52;1.80;;;1.17;;
3918;SDS011;1974;48.670;8.994;2023-01-01T03:04:24;2.93;;;0.97;;
3918;SDS011;1974;48.670;8.994;2023-01-01T03:06:59;3.00;;;0.90;;
3918;SDS011;1974;48.670;8.994;2023-01-01T03:09:36;1.10;;;1.00;;
3918;SDS011;1974;48.670;8.994;2023-01-01T03:12:14;1.30;;;0.60;;
3918;SDS011;1974;48.670;8.994;2023-01-01T03:14:49;0.60;;;0.60;;
3918;SDS011;1974;48.670;8.994;2023-01-01T03:17:24;1.57;;;0.90;;
3918;SDS011;1974;48.670;8.994;2023-01-01T03:19:55;2.63;;;1.07;;
3918;SDS011;1974;48.670;8.994;2023-01-01T03:22:27;1.23;;;0.60;;
3918;SDS011;1974;48.670;8.994;2023-01-01T03:24:57;0.63;;;0.53;;
3918;SDS011;1974;48.670;8.994;2023-01-01T03:27:26;0.93;;;0.80;;
3918;SDS011;1974;48.670;8.994;2023-01-01T03:29:58;3.70;;;0.60;;
3918;SDS011;1974;48.670;8.994;2023-01-01T03:32:30;1.50;;;0.60;;
3918;SDS011;1974;48.670;8.994;2023-01-01T03:35:16;0.43;;;0.43;;
3918;SDS011;1974;48.670;8.994;2023-01-01T03:37:45;0.80;;;0.50;;
3918;SDS011;1974;48.670;8.994;2023-01-01T03:40:14;0.83;;;0.67;;
3918;SDS011;1974;48.670;8.994;2023-01-01T03:42:43;7.50;;;0.80;;
3918;SDS011;1974;48.670;8.994;2023-01-01T03:45:15;0.60;;;0.60;;
3918;SDS011;1974;48.670;8.994;2023-01-01T03:47:47;0.83;;;0.83;;
3918;SDS011;1974;48.670;8.994;2023-01-01T03:50:14;1.80;;;0.73;;
3918;SDS011;1974;48.670;8.994;2023-01-01T03:52:42;1.67;;;0.60;;
3918;SDS011;1974;48.670;8.994;2023-01-01T03:55:17;0.80;;;0.50;;
3918;SDS011;1974;48.670;8.994;2023-01-01T03:57:49;2.73;;;0.97;;
3918;SDS011;1974;48.670;8.994;2023-01-01T04:00:22;2.87;;;0.90;;
3918;SDS011;1974;48.670;8.994;2023-01-01T04:02:53;1.50;;;0.50;;
3918;SDS011;1974;48.670;8.994;2023-01-01T04:05:24;0.70;;;0.70;;
3918;SDS011;1974;48.670;8.994;2023-01-01T04:07:51;1.60;;;0.90;;
3918;SDS011;1974;48.670;8.994;2023-01-01T04:10:19;5.70;;;1.30;;
3918;SDS011;1974;48.670;8.994;2023-01-01T04:12:46;1.00;;;0.77;;
3918;SDS011;1974;48.670;8.994;2023-01-01T04:15:15;0.60;;;0.60;;
3918;SDS011;1974;48.670;8.994;2023-01-01T04:17:42;3.63;;;1.00;;
3918;SDS011;1974;48.670;8.994;2023-01-01T04:20:11;1.50;;;1.27;;
3918;SDS011;1974;48.670;8.994;2023-01-01T04:22:38;0.60;;;0.60;;
3918;SDS011;1974;48.670;8.994;2023-01-01T04:25:05;4.23;;;1.03;;
3918;SDS011;1974;48.670;8.994;2023-01-01T04:27:33;2.40;;;1.30;;
3918;SDS011;1974;48.670;8.994;2023-01-01T04:30:00;1.23;;;0.60;;
3918;SDS011;1974;48.670;8.994;2023-01-01T04:32:28;1.60;;;0.90;;
3918;SDS011;1974;48.670;8.994;2023-01-01T04:34:55;0.90;;;0.90;;
3918;SDS011;1974;48.670;8.994;2023-01-01T04:37:23;1.57;;;0.70;;
3918;SDS011;1974;48.670;8.994;2023-01-01T04:39:50;1.43;;;1.10;;
3918;SDS011;1974;48.670;8.994;2023-01-01T04:42:17;1.13;;;0.80;;
3918;SDS011;1974;48.670;8.994;2023-01-01T04:44:44;2.20;;;0.80;;
3918;SDS011;1974;48.670;8.994;2023-01-01T04:47:11;2.93;;;0.93;;
3918;SDS011;1974;48.670;8.994;2023-01-01T04:49:38;2.03;;;0.53;;
3918;SDS011;1974;48.670;8.994;2023-01-01T04:52:04;0.83;;;0.60;;
3918;SDS011;1974;48.670;8.994;2023-01-01T04:54:33;0.50;;;0.40;;
3918;SDS011;1974;48.670;8.994;2023-01-01T04:56:59;0.40;;;0.40;;
3918;SDS011;1974;48.670;8.994;2023-01-01T04:59:27;0.70;;;0.50;;
3918;SDS011;1974;48.670;8.994;2023-01-01T05:01:54;0.83;;;0.83;;
3918;SDS011;1974;48.670;8.994;2023-01-01T05:04:21;0.57;;;0.57;;
3918;SDS011;1974;48.670;8.994;2023-01-01T05:06:48;0.53;;;0.40;;
3918;SDS011;1974;48.670;8.994;2023-01-01T05:09:15;0.60;;;0.53;;
3918;SDS011;1974;48.670;8.994;2023-01-01T05:11:43;0.70;;;0.60;;
3918;SDS011;1974;48.670;8.994;2023-01-01T05:14:10;4.63;;;1.10;;
3918;SDS011;1974;48.670;8.994;2023-01-01T05:16:37;0.60;;;0.50;;
3918;SDS011;1974;48.670;8.994;2023-01-01T05:19:05;0.60;;;0.60;;
3918;SDS011;1974;48.670;8.994;2023-01-01T05:21:34;1.70;;;0.50;;
3918;SDS011;1974;48.670;8.994;2023-01-01T05:24:03;1.43;;;0.73;;
3918;SDS011;1974;48.670;8.994;2023-01-01T05:26:32;1.00;;;0.70;;
3918;SDS011;1974;48.670;8.994;2023-01-01T05:29:02;3.53;;;0.63;;
3918;SDS011;1974;48.670;8.994;2023-01-01T05:31:30;0.50;;;0.50;;
3918;SDS011;1974;48.670;8.994;2023-01-01T05:33:58;0.73;;;0.60;;
3918;SDS011;1974;48.670;8.994;2023-01-01T05:36:25;1.17;;;0.40;;
3918;SDS011;1974;48.670;8.994;2023-01-01T05:38:54;1.27;;;0.83;;
3918;SDS011;1974;48.670;8.994;2023-01-01T05:41:21;0.70;;;0.70;;
3918;SDS011;1974;48.670;8.994;2023-01-01T05:43:48;1.37;;;0.70;;
3918;SDS011;1974;48.670;8.994;2023-01-01T05:46:17;0.77;;;0.60;;
3918;SDS011;1974;48.670;8.994;2023-01-01T05:48:45;0.60;;;0.53;;
3918;SDS011;1974;48.670;8.994;2023-01-01T05:51:13;0.50;;;0.50;;
3918;SDS011;1974;48.670;8.994;2023-01-01T05:53:41;2.20;;;1.20;;
3918;SDS011;1974;48.670;8.994;2023-01-01T05:56:08;0.63;;;0.63;;
3918;SDS011;1974;48.670;8.994;2023-01-01T05:58:36;0.70;;;0.60;;
3918;SDS011;1974;48.670;8.994;2023-01-01T06:01:04;1.93;;;1.10;;
3918;SDS011;1974;48.670;8.994;2023-01-01T06:03:33;2.23;;;0.70;;
3918;SDS011;1974;48.670;8.994;2023-01-01T06:06:04;2.40;;;0.80;;
3918;SDS011;1974;48.670;8.994;2023-01-01T06:08:31;1.13;;;0.50;;
3918;SDS011;1974;48.670;8.994;2023-01-01T06:10:59;0.77;;;0.77;;
3918;SDS011;1974;48.670;8.994;2023-01-01T06:13:27;2.37;;;0.60;;
3918;SDS011;1974;48.670;8.994;2023-01-01T06:15:54;0.83;;;0.70;;
3918;SDS011;1974;48.670;8.994;2023-01-01T06:18:21;0.40;;;0.40;;
3918;SDS011;1974;48.670;8.994;2023-01-01T06:20:49;1.57;;;0.50;;
3918;SDS011;1974;48.670;8.994;2023-01-01T06:23:17;1.07;;;0.70;;
3918;SDS011;1974;48.670;8.994;2023-01-01T06:25:44;3.27;;;0.77;;
3918;SDS011;1974;48.670;8.994;2023-01-01T06:28:10;1.90;;;0.70;;
3918;SDS011;1974;48.670;8.994;2023-01-01T06:30:37;2.53;;;0.60;;
3918;SDS011;1974;48.670;8.994;2023-01-01T06:33:04;0.90;;;0.53;;
3918;SDS011;1974;48.670;8.994;2023-01-01T06:35:31;0.90;;;0.50;;
3918;SDS011;1974;48.670;8.994;2023-01-01T06:37:59;0.97;;;0.77;;
3918;SDS011;1974;48.670;8.994;2023-01-01T06:40:25;1.37;;;0.60;;
3918;SDS011;1974;48.670;8.994;2023-01-01T06:42:52;1.20;;;0.50;;
3918;SDS011;1974;48.670;8.994;2023-01-01T06:45:19;0.50;;;0.50;;
3918;SDS011;1974;48.670;8.994;2023-01-01T06:47:46;0.60;;;0.60;;
3918;SDS011;1974;48.670;8.994;2023-01-01T06:50:12;1.53;;;0.80;;
3918;SDS011;1974;48.670;8.994;2023-01-01T06:52:39;3.80;;;0.77;;
3918;SDS011;1974;48.670;8.994;2023-01-01T06:55:08;0.93;;;0.53;;
3918;SDS011;1974;48.670;8.994;2023-01-01T06:57:34;0.40;;;0.40;;
3918;SDS011;1974;48.670;8.994;2023-01-01T07:00:01;1.50;;;0.60;;
3918;SDS011;1974;48.670;8.994;2023-01-01T07:02:28;0.60;;;0.60;;
3918;SDS011;1974;48.670;8.994;2023-01-01T07:04:55;2.00;;;0.40;;
3918;SDS011;1974;48.670;8.994;2023-01-01T07:07:22;1.17;;;0.80;;
3918;SDS011;1974;48.670;8.994;2023-01-01T07:09:48;0.70;;;0.70;;
3918;SDS011;1974;48.670;8.994;2023-01-01T07:12:16;0.77;;;0.50;;
3918;SDS011;1974;48.670;8.994;2023-01-01T07:14:43;1.23;;;0.83;;
3918;SDS011;1974;48.670;8.994;2023-01-01T07:17:10;0.50;;;0.47;;
3918;SDS011;1974;48.670;8.994;2023-01-01T07:19:37;0.50;;;0.47;;
3918;SDS011;1974;48.670;8.994;2023-01-01T07:22:03;2.70;;;0.70;;
3918;SDS011;1974;48.670;8.994;2023-01-01T07:24:30;1.07;;;0.97;;
3918;SDS011;1974;48.670;8.994;2023-01-01T07:26:57;1.60;;;0.90;;
3918;SDS011;1974;48.670;8.994;2023-01-01T07:29:25;0.90;;;0.70;;
3918;SDS011;1974;48.670;8.994;2023-01-01T07:31:51;1.00;;;0.70;;
3918;SDS011;1974;48.670;8.994;2023-01-01T07:34:18;1.57;;;0.60;;
3918;SDS011;1974;48.670;8.994;2023-01-01T07:36:46;1.40;;;0.70;;
3918;SDS011;1974;48.670;8.994;2023-01-01T07:39:13;0.80;;;0.50;;
3918;SDS011;1974;48.670;8.994;2023-01-01T07:41:40;0.90;;;0.50;;
3918;SDS011;1974;48.670;8.994;2023-01-01T07:44:07;1.00;;;1.00;;
3918;SDS011;1974;48.670;8.994;2023-01-01T07:46:35;0.57;;;0.57;;
3918;SDS011;1974;48.670;8.994;2023-01-01T07:49:02;2.23;;;0.60;;
3918;SDS011;1974;48.670;8.994;2023-01-01T07:51:29;1.73;;;0.73;;
3918;SDS011;1974;48.670;8.994;2023-01-01T07:53:56;0.40;;;0.40;;
3918;SDS011;1974;48.670;8.994;2023-01-01T07:56:23;0.93;;;0.53;;
3918;SDS011;1974;48.670;8.994;2023-01-01T07:58:50;0.80;;;0.70;;
3918;SDS011;1974;48.670;8.994;2023-01-01T08:01:16;1.67;;;1.07;;
3918;SDS011;1974;48.670;8.994;2023-01-01T08:03:46;1.27;;;0.50;;
3918;SDS011;1974;48.670;8.994;2023-01-01T08:06:16;0.50;;;0.50;;
3918;SDS011;1974;48.670;8.994;2023-01-01T08:08:42;1.10;;;0.63;;
3918;SDS011;1974;48.670;8.994;2023-01-01T08:11:09;0.60;;;0.60;;
3918;SDS011;1974;48.670;8.994;2023-01-01T08:13:36;0.70;;;0.57;;
3918;SDS011;1974;48.670;8.994;2023-01-01T08:16:03;1.33;;;1.23;;
3918;SDS011;1974;48.670;8.994;2023-01-01T08:18:30;1.27;;;0.50;;
3918;SDS011;1974;48.670;8.994;2023-01-01T08:20:58;0.70;;;0.70;;
3918;SDS011;1974;48.670;8.994;2023-01-01T08:23:25;1.17;;;0.50;;
3918;SDS011;1974;48.670;8.994;2023-01-01T08:25:52;1.33;;;0.60;;
3918;SDS011;1974;48.670;8.994;2023-01-01T08:28:19;1.83;;;1.23;;
3918;SDS011;1974;48.670;8.994;2023-01-01T08:30:46;0.70;;;0.63;;
3918;SDS011;1974;48.670;8.994;2023-01-01T08:33:12;0.60;;;0.60;;
3918;SDS011;1974;48.670;8.994;2023-01-01T08:35:40;1.30;;;0.50;;
3918;SDS011;1974;48.670;8.994;2023-01-01T08:38:10;0.70;;;0.47;;
3918;SDS011;1974;48.670;8.994;2023-01-01T08:40:37;0.50;;;0.50;;
3918;SDS011;1974;48.670;8.994;2023-01-01T08:43:04;1.37;;;1.03;;
3918;SDS011;1974;48.670;8.994;2023-01-01T08:45:31;0.93;;;0.40;;
3918;SDS011;1974;48.670;8.994;2023-01-01T08:47:58;0.90;;;0.50;;
3918;SDS011;1974;48.670;8.994;2023-01-01T08:50:25;2.00;;;0.40;;
3918;SDS011;1974;48.670;8.994;2023-01-01T08:52:51;0.60;;;0.60;;
3918;SDS011;1974;48.670;8.994;2023-01-01T08:55:19;1.03;;;0.57;;
3918;SDS011;1974;48.670;8.994;2023-01-01T08:57:46;3.30;;;0.70;;
3918;SDS011;1974;48.670;8.994;2023-01-01T09:00:13;2.50;;;0.60;;
3918;SDS011;1974;48.670;8.994;2023-01-01T09:02:41;0.83;;;0.57;;
3918;SDS011;1974;48.670;8.994;2023-01-01T09:05:08;1.23;;;0.90;;
3918;SDS011;1974;48.670;8.994;2023-01-01T09:07:35;1.90;;;0.67;;
3918;SDS011;1974;48.670;8.994;2023-01-01T09:10:02;0.40;;;0.30;;
3918;SDS011;1974;48.670;8.994;2023-01-01T09:12:30;0.70;;;0.70;;
3918;SDS011;1974;48.670;8.994;2023-01-01T09:14:57;0.80;;;0.80;;
3918;SDS011;1974;48.670;8.994;2023-01-01T09:17:24;1.73;;;0.83;;
3918;SDS011;1974;48.670;8.994;2023-01-01T09:19:51;0.80;;;0.43;;
3918;SDS011;1974;48.670;8.994;2023-01-01T09:22:17;0.50;;;0.50;;
3918;SDS011;1974;48.670;8.994;2023-01-01T09:24:44;1.40;;;0.90;;
3918;SDS011;1974;48.670;8.994;2023-01-01T09:27:11;1.47;;;0.70;;
3918;SDS011;1974;48.670;8.994;2023-01-01T09:29:39;0.57;;;0.57;;
3918;SDS011;1974;48.670;8.994;2023-01-01T09:32:05;0.50;;;0.50;;
3918;SDS011;1974;48.670;8.994;2023-01-01T09:34:32;1.27;;;0.60;;
3918;SDS011;1974;48.670;8.994;2023-01-01T09:36:59;0.60;;;0.60;;
3918;SDS011;1974;48.670;8.994;2023-01-01T09:39:26;1.43;;;0.53;;
3918;SDS011;1974;48.670;8.994;2023-01-01T09:41:56;0.60;;;0.40;;
3918;SDS011;1974;48.670;8.994;2023-01-01T09:44:51;3.20;;;0.87;;
3918;SDS011;1974;48.670;8.994;2023-01-01T09:47:27;1.07;;;0.67;;
3918;SDS011;1974;48.670;8.994;2023-01-01T09:49:58;1.23;;;0.70;;
3918;SDS011;1974;48.670;8.994;2023-01-01T09:52:29;1.43;;;0.73;;
3918;SDS011;1974;48.670;8.994;2023-01-01T09:55:08;0.90;;;0.63;;
3918;SDS011;1974;48.670;8.994;2023-01-01T09:57:40;0.40;;;0.40;;
3918;SDS011;1974;48.670;8.994;2023-01-01T10:00:12;2.60;;;1.00;;
3918;SDS011;1974;48.670;8.994;2023-01-01T10:02:42;1.00;;;0.70;;
3918;SDS011;1974;48.670;8.994;2023-01-01T10:05:30;1.67;;;0.97;;
3918;SDS011;1974;48.670;8.994;2023-01-01T10:08:04;0.80;;;0.73;;
3918;SDS011;1974;48.670;8.994;2023-01-01T10:10:40;2.23;;;1.17;;
3918;SDS011;1974;48.670;8.994;2023-01-01T10:13:18;6.60;;;0.77;;
3918;SDS011;1974;48.670;8.994;2023-01-01T10:15:53;3.43;;;1.00;;
3918;SDS011;1974;48.670;8.994;2023-01-01T10:18:25;0.93;;;0.50;;
3918;SDS011;1974;48.670;8.994;2023-01-01T10:20:58;0.70;;;0.60;;
3918;SDS011;1974;48.670;8.994;2023-01-01T10:23:30;1.93;;;1.57;;
3918;SDS011;1974;48.670;8.994;2023-01-01T10:26:01;2.50;;;1.10;;
3918;SDS011;1974;48.670;8.994;2023-01-01T10:28:34;3.60;;;0.80;;
3918;SDS011;1974;48.670;8.994;2023-01-01T10:31:16;0.90;;;0.50;;
3918;SDS011;1974;48.670;8.994;2023-01-01T10:33:45;0.67;;;0.57;;
3918;SDS011;1974;48.670;8.994;2023-01-01T10:36:13;2.17;;;0.77;;
3918;SDS011;1974;48.670;8.994;2023-01-01T10:38:42;0.70;;;0.60;;
3918;SDS011;1974;48.670;8.994;2023-01-01T10:41:10;0.90;;;0.80;;
3918;SDS011;1974;48.670;8.994;2023-01-01T10:43:37;0.60;;;0.60;;
3918;SDS011;1974;48.670;8.994;2023-01-01T10:46:04;0.50;;;0.50;;
3918;SDS011;1974;48.670;8.994;2023-01-01T10:48:33;1.73;;;0.80;;
3918;SDS011;1974;48.670;8.994;2023-01-01T10:51:00;0.90;;;0.70;;
3918;SDS011;1974;48.670;8.994;2023-01-01T10:53:30;1.03;;;0.50;;
3918;SDS011;1974;48.670;8.994;2023-01-01T10:56:00;0.50;;;0.50;;
3918;SDS011;1974;48.670;8.994;2023-01-01T10:58:34;1.50;;;0.60;;
3918;SDS011;1974;48.670;8.994;2023-01-01T11:01:10;1.00;;;0.70;;
3918;SDS011;1974;48.670;8.994;2023-01-01T11:03:55;1.67;;;0.70;;
3918;SDS011;1974;48.670;8.994;2023-01-01T11:06:24;1.67;;;0.80;;
3918;SDS011;1974;48.670;8.994;2023-01-01T11:08:53;0.50;;;0.50;;
3918;SDS011;1974;48.670;8.994;2023-01-01T11:11:24;1.53;;;0.87;;
3918;SDS011;1974;48.670;8.994;2023-01-01T11:13:53;0.70;;;0.50;;
3918;SDS011;1974;48.670;8.994;2023-01-01T11:16:21;0.87;;;0.70;;
3918;SDS011;1974;48.670;8.994;2023-01-01T11:18:49;0.67;;;0.67;;
3918;SDS011;1974;48.670;8.994;2023-01-01T11:21:21;0.83;;;0.50;;
3918;SDS011;1974;48.670;8.994;2023-01-01T11:23:50;1.93;;;0.60;;
3918;SDS011;1974;48.670;8.994;2023-01-01T11:26:34;2.50;;;0.80;;
3918;SDS011;1974;48.670;8.994;2023-01-01T11:29:02;0.70;;;0.50;;
3918;SDS011;1974;48.670;8.994;2023-01-01T11:31:41;2.40;;;0.60;;
3918;SDS011;1974;48.670;8.994;2023-01-01T11:34:13;0.80;;;0.53;;
3918;SDS011;1974;48.670;8.994;2023-01-01T11:37:04;0.53;;;0.53;;
3918;SDS011;1974;48.670;8.994;2023-01-01T11:39:36;0.83;;;0.60;;
3918;SDS011;1974;48.670;8.994;2023-01-01T11:42:08;3.53;;;0.87;;
3918;SDS011;1974;48.670;8.994;2023-01-01T11:44:43;1.40;;;0.70;;
3918;SDS011;1974;48.670;8.994;2023-01-01T11:47:20;1.33;;;0.60;;
3918;SDS011;1974;48.670;8.994;2023-01-01T11:49:54;0.70;;;0.40;;
3918;SDS011;1974;48.670;8.994;2023-01-01T11:52:33;2.33;;;0.70;;
3918;SDS011;1974;48.670;8.994;2023-01-01T11:55:12;0.50;;;0.40;;
3918;SDS011;1974;48.670;8.994;2023-01-01T11:57:50;1.20;;;0.53;;
3918;SDS011;1974;48.670;8.994;2023-01-01T12:00:24;1.17;;;0.73;;
3918;SDS011;1974;48.670;8.994;2023-01-01T12:02:55;0.90;;;0.60;;
3918;SDS011;1974;48.670;8.994;2023-01-01T12:05:26;0.50;;;0.50;;
3918;SDS011;1974;48.670;8.994;2023-01-01T12:08:02;0.67;;;0.50;;
3918;SDS011;1974;48.670;8.994;2023-01-01T12:10:36;0.57;;;0.57;;
3918;SDS011;1974;48.670;8.994;2023-01-01T12:13:13;1.13;;;0.60;;
3918;SDS011;1974;48.670;8.994;2023-01-01T12:15:45;0.90;;;0.90;;
3918;SDS011;1974;48.670;8.994;2023-01-01T12:18:17;0.60;;;0.60;;
3918;SDS011;1974;48.670;8.994;2023-01-01T12:20:51;0.50;;;0.43;;
3918;SDS011;1974;48.670;8.994;2023-01-01T12:23:25;1.73;;;0.90;;
3918;SDS011;1974;48.670;8.994;2023-01-01T12:25:54;3.70;;;0.87;;
3918;SDS011;1974;48.670;8.994;2023-01-01T12:28:33;0.50;;;0.50;;
3918;SDS011;1974;48.670;8.994;2023-01-01T12:31:09;1.17;;;0.87;;
3918;SDS011;1974;48.670;8.994;2023-01-01T12:33:50;0.80;;;0.50;;
3918;SDS011;1974;48.670;8.994;2023-01-01T12:36:33;1.23;;;0.70;;
3918;SDS011;1974;48.670;8.994;2023-01-01T12:39:27;0.73;;;0.50;;
3918;SDS011;1974;48.670;8.994;2023-01-01T12:42:18;0.43;;;0.43;;
3918;SDS011;1974;48.670;8.994;2023-01-01T12:45:01;0.90;;;0.70;;
3918;SDS011;1974;48.670;8.994;2023-01-01T12:47:40;0.83;;;0.70;;
3918;SDS011;1974;48.670;8.994;2023-01-01T12:50:15;2.90;;;0.53;;
3918;SDS011;1974;48.670;8.994;2023-01-01T12:52:51;0.87;;;0.63;;
3918;SDS011;1974;48.670;8.994;2023-01-01T12:55:42;0.50;;;0.50;;
3918;SDS011;1974;48.670;8.994;2023-01-01T12:58:23;1.00;;;0.80;;
3918;SDS011;1974;48.670;8.994;2023-01-01T13:00:56;0.60;;;0.40;;
3918;SDS011;1974;48.670;8.994;2023-01-01T13:03:26;0.90;;;0.60;;
3918;SDS011;1974;48.670;8.994;2023-01-01T13:05:58;0.90;;;0.60;;
3918;SDS011;1974;48.670;8.994;2023-01-01T13:08:25;0.70;;;0.70;;
3918;SDS011;1974;48.670;8.994;2023-01-01T13:10:54;0.70;;;0.50;;
3918;SDS011;1974;48.670;8.994;2023-01-01T13:13:25;3.60;;;0.60;;
3918;SDS011;1974;48.670;8.994;2023-01-01T13:15:52;0.70;;;0.60;;
3918;SDS011;1974;48.670;8.994;2023-01-01T13:18:24;0.60;;;0.60;;
3918;SDS011;1974;48.670;8.994;2023-01-01T13:21:00;0.63;;;0.50;;
3918;SDS011;1974;48.670;8.994;2023-01-01T13:23:42;0.40;;;0.40;;
3918;SDS011;1974;48.670;8.994;2023-01-01T13:32:08;1.67;;;0.70;;
3918;SDS011;1974;48.670;8.994;2023-01-01T13:37:41;2.00;;;0.80;;
3918;SDS011;1974;48.670;8.994;2023-01-01T13:43:20;0.73;;;0.73;;
3918;SDS011;1974;48.670;8.994;2023-01-01T13:45:54;0.80;;;0.60;;
3918;SDS011;1974;48.670;8.994;2023-01-01T13:48:33;1.13;;;0.60;;
3918;SDS011;1974;48.670;8.994;2023-01-01T13:51:44;1.20;;;0.57;;
3918;SDS011;1974;48.670;8.994;2023-01-01T13:54:26;2.60;;;0.70;;
3918;SDS011;1974;48.670;8.994;2023-01-01T13:57:13;1.77;;;0.97;;
3918;SDS011;1974;48.670;8.994;2023-01-01T13:59:59;2.10;;;0.60;;
3918;SDS011;1974;48.670;8.994;2023-01-01T14:02:32;0.93;;;0.43;;
3918;SDS011;1974;48.670;8.994;2023-01-01T14:05:06;0.50;;;0.50;;
3918;SDS011;1974;48.670;8.994;2023-01-01T14:07:42;1.07;;;0.50;;
3918;SDS011;1974;48.670;8.994;2023-01-01T14:10:20;0.80;;;0.60;;
3918;SDS011;1974;48.670;8.994;2023-01-01T14:12:50;0.70;;;0.50;;
3918;SDS011;1974;48.670;8.994;2023-01-01T14:15:23;0.80;;;0.50;;
3918;SDS011;1974;48.670;8.994;2023-01-01T14:17:53;0.70;;;0.70;;
3918;SDS011;1974;48.670;8.994;2023-01-01T14:20:29;0.40;;;0.37;;
3918;SDS011;1974;48.670;8.994;2023-01-01T14:22:59;1.23;;;0.60;;
3918;SDS011;1974;48.670;8.994;2023-01-01T14:25:31;0.60;;;0.40;;
3918;SDS011;1974;48.670;8.994;2023-01-01T14:27:58;2.83;;;0.50;;
3918;SDS011;1974;48.670;8.994;2023-01-01T14:30:27;4.83;;;0.40;;
3918;SDS011;1974;48.670;8.994;2023-01-01T14:32:57;2.83;;;0.50;;
3918;SDS011;1974;48.670;8.994;2023-01-01T14:35:24;2.60;;;0.80;;
3918;SDS011;1974;48.670;8.994;2023-01-01T14:37:51;0.73;;;0.57;;
3918;SDS011;1974;48.670;8.994;2023-01-01T14:40:19;1.37;;;0.70;;
3918;SDS011;1974;48.670;8.994;2023-01-01T14:42:53;0.50;;;0.40;;
3918;SDS011;1974;48.670;8.994;2023-01-01T14:45:28;0.80;;;0.60;;
3918;SDS011;1974;48.670;8.994;2023-01-01T14:47:56;1.23;;;0.47;;
3918;SDS011;1974;48.670;8.994;2023-01-01T14:50:24;0.77;;;0.50;;
3918;SDS011;1974;48.670;8.994;2023-01-01T14:52:54;1.60;;;0.60;;
3918;SDS011;1974;48.670;8.994;2023-01-01T14:55:26;1.27;;;0.50;;
3918;SDS011;1974;48.670;8.994;2023-01-01T14:57:59;2.00;;;0.80;;
3918;SDS011;1974;48.670;8.994;2023-01-01T15:00:31;0.77;;;0.50;;
3918;SDS011;1974;48.670;8.994;2023-01-01T15:03:05;0.70;;;0.60;;
3918;SDS011;1974;48.670;8.994;2023-01-01T15:05:37;0.77;;;0.50;;
3918;SDS011;1974;48.670;8.994;2023-01-01T15:08:05;1.17;;;0.90;;
3918;SDS011;1974;48.670;8.994;2023-01-01T15:10:42;0.60;;;0.60;;
3918;SDS011;1974;48.670;8.994;2023-01-01T15:13:12;0.53;;;0.50;;
3918;SDS011;1974;48.670;8.994;2023-01-01T15:15:46;0.60;;;0.40;;
3918;SDS011;1974;48.670;8.994;2023-01-01T15:21:00;1.03;;;0.40;;
3918;SDS011;1974;48.670;8.994;2023-01-01T15:23:28;1.90;;;0.50;;
3918;SDS011;1974;48.670;8.994;2023-01-01T15:25:55;0.57;;;0.50;;
3918;SDS011;1974;48.670;8.994;2023-01-01T15:28:22;0.70;;;0.50;;
3918;SDS011;1974;48.670;8.994;2023-01-01T15:30:52;1.03;;;0.60;;
3918;SDS011;1974;48.670;8.994;2023-01-01T15:33:19;0.60;;;0.60;;
3918;SDS011;1974;48.670;8.994;2023-01-01T15:35:47;0.60;;;0.50;;
3918;SDS011;1974;48.670;8.994;2023-01-01T15:38:16;1.23;;;0.60;;
3918;SDS011;1974;48.670;8.994;2023-01-01T15:40:47;0.80;;;0.60;;
3918;SDS011;1974;48.670;8.994;2023-01-01T15:43:17;0.90;;;0.90;;
3918;SDS011;1974;48.670;8.994;2023-01-01T15:45:50;1.20;;;0.80;;
3918;SDS011;1974;48.670;8.994;2023-01-01T15:48:24;2.10;;;0.70;;
3918;SDS011;1974;48.670;8.994;2023-01-01T15:50:58;1.67;;;0.90;;
3918;SDS011;1974;48.670;8.994;2023-01-01T15:53:50;3.07;;;0.80;;